Latest Coastal Weather Observations for Laverton

IDV60701

Issued at 9:02 am EST Sunday 19 May 2024 (issued every 10 minutes, with the page automatically refreshed every 10 minutes)

About coastal observations | Map of coastal stations | Coastal observations for VIC | Marine services | Other Formats
Station Details ID: 087031 Name: LAVERTON RAAF Lat: -37.86 Lon: 144.76 Height: 20.1 m
Data from the previous 72 hours. | See also: Recent months at Laverton
Date/Time
EST
Wind Sea
Height
m
Swell Vis
km
Cloud Weather Temp
°C
Press
MSL
hPa
Rain since
9am
mm
Dir  Spd
kts
Gust
kts
Height
m
Period
s
Dir
19/08:30am WNW 9 12 - - - - 10 Partly cloudy - 10.0 1025.0 0.0
19/08:00am WNW 10 13 - - - - 10 Partly cloudy - 9.7 1025.1 0.0
19/07:30am WNW 9 12 - - - - 10 Partly cloudy - 9.5 1025.2 0.0
19/07:00am NW 9 11 - - - - 10 Partly cloudy - 9.1 1025.2 0.0
19/06:30am NW 6 9 - - - - 10 Partly cloudy - 8.9 1025.3 0.0
19/06:00am WNW 7 8 - - - - 10 Cloudy - 8.8 1025.6 0.0
19/05:30am WNW 6 8 - - - - 10 Partly cloudy - 8.4 1025.8 0.0
19/05:00am NW 8 10 - - - - 10 Partly cloudy - 8.1 1025.8 0.0
19/04:30am NW 8 10 - - - - 10 Partly cloudy - 8.4 1025.6 0.0
19/04:00am WNW 9 11 - - - - 10 Cloudy - 8.3 1026.0 0.0
19/03:30am NW 7 9 - - - - 10 Cloudy - 8.0 1026.2 0.0
19/03:00am NW 7 10 - - - - 10 Cloudy - 7.7 1026.6 0.0
19/02:30am NW 10 12 - - - - 10 Cloudy - 7.5 1026.7 0.0
19/02:00am NW 8 9 - - - - 10 Cloudy - 6.7 1027.3 0.0
19/01:30am NW 8 9 - - - - 10 Cloudy - 6.3 1027.8 0.0
19/01:00am NW 6 7 - - - - 10 Partly cloudy - 5.3 1028.2 0.0
19/12:30am NW 6 8 - - - - 10 Partly cloudy - 4.7 1028.5 0.0
19/12:00am NW 7 8 - - - - 10 Mostly cloudy - 5.1 1028.7 0.0
 
Date/Time
EST
Wind Sea
Height
m
Swell Vis
km
Cloud Weather Temp
°C
Press
MSL
hPa
Rain since
9am
mm
Dir  Spd
kts
Gust
kts
Height
m
Period
s
Dir
18/11:30pm NW 7 8 - - - - 10 Partly cloudy - 5.0 1029.3 0.0
18/11:00pm WNW 6 7 - - - - 10 Partly cloudy - 4.1 1029.5 0.0
18/10:30pm WNW 6 7 - - - - 10 Partly cloudy - 4.9 1029.6 0.0
18/10:00pm W 7 8 - - - - 10 - - 4.6 1030.0 0.0
18/09:30pm W 6 7 - - - - 10 - - 5.0 1030.1 0.0
18/09:00pm WSW 6 7 - - - - 10 - - 5.2 1030.0 0.0
18/08:30pm WSW 6 6 - - - - 10 - - 6.2 1030.3 0.0
18/08:00pm SSE 5 7 - - - - 10 - - 6.9 1030.1 0.0
18/07:30pm SSE 3 3 - - - - 10 - - 8.0 1030.5 0.0
18/07:00pm SSE 2 4 - - - - 10 - - 8.3 1030.6 0.0
18/06:30pm SSE 3 4 - - - - 10 - - 9.0 1030.6 0.0
18/06:00pm SSE 3 3 - - - - 10 - - 9.5 1030.4 0.0
18/05:30pm SSE 4 5 - - - - 10 Partly cloudy - 10.7 1030.7 0.0
18/05:00pm SSE 6 9 - - - - 10 Partly cloudy - 11.5 1030.8 0.0
18/04:30pm SSE 5 7 - - - - 10 - - 11.9 1031.0 0.0
18/04:00pm S 7 9 - - - - 10 Partly cloudy - 12.4 1031.2 0.0
18/03:30pm SSE 6 9 - - - - 10 - - 12.8 1031.2 0.0
18/03:00pm S 4 11 - - - - 10 - - 12.9 1031.3 0.0
18/02:30pm SSE 7 10 - - - - 10 Partly cloudy - 12.9 1031.5 0.0
18/02:00pm SSE 8 12 - - - - 10 Partly cloudy - 13.0 1031.6 0.0
18/01:30pm S 9 14 - - - - 10 Partly cloudy - 13.3 1032.1 0.0
18/01:00pm SE 7 13 - - - - 10 Partly cloudy - 13.2 1032.4 0.0
18/12:30pm SSE 7 9 - - - - 10 - - 13.2 1032.6 0.0
18/12:00pm ESE 9 12 - - - - 10 - - 12.6 1033.2 0.0
18/11:30am ESE 10 14 - - - - 10 - - 12.3 1033.6 0.0
18/11:00am SE 9 13 - - - - 10 - - 12.4 1033.8 0.0
18/10:30am ESE 9 12 - - - - 10 - - 12.3 1033.7 0.0
18/10:00am ESE 8 11 - - - - 10 - - 11.8 1033.5 0.0
18/09:30am ESE 9 13 - - - - 10 Partly cloudy - 11.6 1033.2 0.0
18/09:00am ESE 10 15 - - - - 10 Partly cloudy - 11.7 1032.9 4.0
18/08:30am SE 9 14 - - - - 10 Partly cloudy - 11.0 1032.7 4.0
18/08:00am SSE 9 15 - - - - 10 Partly cloudy - 10.1 1032.4 4.0
18/07:30am SSE 9 14 - - - - 10 Partly cloudy - 10.0 1032.5 4.0
18/07:00am SSE 9 14 - - - - 10 Partly cloudy - 9.8 1032.3 4.0
18/06:30am SSE 11 17 - - - - 10 Partly cloudy - 10.0 1032.2 4.0
18/06:00am SSE 11 16 - - - - 10 Mostly cloudy - 10.0 1031.7 4.0
18/05:30am SSE 10 15 - - - - 10 Cloudy - 10.1 1031.4 4.0
18/05:00am SSE 11 19 - - - - 10 Partly cloudy - 10.4 1031.4 4.0
18/04:30am SSE 11 18 - - - - 10 Partly cloudy - 10.1 1031.4 4.0
18/04:00am SSE 12 20 - - - - 10 Partly cloudy - 10.4 1031.1 4.0
18/03:30am SSE 12 19 - - - - 10 Partly cloudy - 10.8 1031.3 4.0
18/03:00am SSE 12 19 - - - - 10 Cloudy - 10.8 1031.3 4.0
18/02:30am SSE 11 16 - - - - 10 Partly cloudy - 10.6 1031.3 4.0
18/02:00am S 12 19 - - - - 10 Partly cloudy - 10.6 1031.3 4.0
18/01:30am S 10 15 - - - - 10 Partly cloudy - 10.2 1031.1 4.0
18/01:00am SSE 11 19 - - - - 10 Partly cloudy - 10.7 1031.1 3.6
18/12:30am S 7 10 - - - - 10 Partly cloudy - 9.9 1031.1 3.6
18/12:00am S 11 17 - - - - 10 Cloudy Rain 10.5 1031.1 3.6
 
Date/Time
EST
Wind Sea
Height
m
Swell Vis
km
Cloud Weather Temp
°C
Press
MSL
hPa
Rain since
9am
mm
Dir  Spd
kts
Gust
kts
Height
m
Period
s
Dir
17/11:30pm S 12 18 - - - - 10 Partly cloudy - 10.6 1031.0 3.6
17/11:00pm SSW 11 19 - - - - 10 Partly cloudy - 10.8 1031.0 3.6
17/10:30pm SW 9 12 - - - - 10 Partly cloudy - 9.9 1030.8 3.6
17/10:00pm SW 8 14 - - - - 10 Partly cloudy - 10.0 1030.7 3.6
17/09:30pm SW 7 10 - - - - 10 Partly cloudy - 9.8 1030.5 3.2
17/09:22pm SW 8 12 - - - - 10 Partly cloudy - 9.9 1030.4 3.2
17/09:04pm SSW 12 18 - - - - 6 Partly cloudy - 10.1 1030.6 3.0
17/09:00pm SW 11 16 - - - - 10 Cloudy Showers 10.1 1030.5 2.6
17/08:56pm SW 10 15 - - - - 10 Partly cloudy - 10.1 1030.4 2.6
17/08:37pm SW 9 15 - - - - 7 Partly cloudy - 10.1 1030.2 2.4
17/08:30pm SSW 7 11 - - - - 10 Partly cloudy - 9.9 1030.3 2.2
17/08:00pm SW 9 13 - - - - 10 Partly cloudy - 10.2 1029.9 1.8
17/07:30pm WSW 5 7 - - - - 10 Partly cloudy - 9.3 1029.7 1.8
17/07:00pm WSW 5 6 - - - - 10 - - 9.1 1029.4 1.8
17/06:30pm SW 6 8 - - - - 10 Partly cloudy - 11.0 1029.2 1.8
17/06:00pm SSW 7 9 - - - - 10 Mostly cloudy - 11.5 1028.9 1.6
17/05:30pm SSW 7 9 - - - - 10 - - 11.7 1028.5 1.6
17/05:00pm SSW 10 16 - - - - 10 Partly cloudy - 12.5 1028.2 1.6
17/04:30pm S 11 17 - - - - 10 Partly cloudy - 13.4 1027.8 1.6
17/04:00pm SSW 7 10 - - - - 10 Partly cloudy - 13.7 1027.5 1.6
17/03:30pm S 8 13 - - - - 10 Partly cloudy - 12.6 1027.1 1.6
17/03:00pm SSW 11 15 - - - - 10 Cloudy Showers 12.6 1026.8 1.6
17/02:44pm SSW 11 18 - - - - 8 Partly cloudy - 12.2 1026.5 1.6
17/02:36pm SSW 11 15 - - - - 9 Partly cloudy - 12.1 1026.4 1.6
17/02:30pm SSW 12 17 - - - - 5 Partly cloudy - 12.2 1026.5 1.4
17/02:24pm SSW 13 19 - - - - 6 Partly cloudy - 12.2 1026.5 1.4
17/02:09pm SSW 15 23 - - - - 7 Partly cloudy - 12.6 1026.3 0.6
17/02:00pm SSW 9 17 - - - - 10 Partly cloudy - 14.9 1025.9 0.0
17/01:30pm SW 9 16 - - - - 10 Partly cloudy - 15.6 1025.9 0.0
17/01:00pm WSW 10 14 - - - - 10 Partly cloudy - 15.7 1025.9 0.0
17/12:30pm WSW 11 15 - - - - 10 Partly cloudy - 15.3 1026.1 0.0
17/12:00pm SW 7 11 - - - - 10 Cloudy - 15.1 1026.4 0.0
17/11:30am WSW 7 9 - - - - 10 Partly cloudy - 15.1 1026.7 0.0
17/11:00am W 8 11 - - - - 10 Partly cloudy - 15.3 1026.7 0.0
17/10:30am NW 7 11 - - - - 10 - - 14.5 1026.7 0.0
17/10:00am NW 7 10 - - - - 10 - - 13.9 1026.8 0.0
17/09:30am NNW 9 12 - - - - 10 Partly cloudy - 13.0 1026.7 0.0
17/09:00am NNW 7 10 - - - - 10 Cloudy - 11.7 1027.1 0.0
17/08:30am NNW 4 5 - - - - 10 Cloudy - 10.5 1027.0 0.0
17/08:00am NNW 4 5 - - - - 10 Partly cloudy - 9.5 1027.2 0.0
17/07:30am NNW 3 5 - - - - 10 Cloudy - 8.6 1026.7 0.0
17/07:00am NNW 4 5 - - - - 10 Partly cloudy - 8.2 1026.4 0.0
17/06:30am NNW 5 7 - - - - 10 - - 7.1 1026.0 0.0
17/06:00am N 6 7 - - - - 10 - - 7.9 1025.6 0.0
17/05:30am N 5 7 - - - - 10 - - 8.2 1025.5 0.0
17/05:00am NNW 5 6 - - - - 10 - - 8.3 1025.7 0.0
17/04:30am NW 2 3 - - - - 10 - - 7.6 1026.1 0.0
17/04:00am NW 7 9 - - - - 10 - - 8.7 1025.3 0.0
17/03:30am WSW 4 5 - - - - 10 - - 7.2 1026.0 0.0
17/03:00am WSW 4 6 - - - - 10 - - 7.1 1026.2 0.0
17/02:30am W 6 7 - - - - 10 - - 7.6 1026.7 0.0
17/02:00am NNW 2 4 - - - - 10 - - 7.0 1026.6 0.0
17/01:30am CALM 0 0 - - - - 10 - - 7.1 1026.5 0.0
17/01:00am NNW 4 4 - - - - 10 - - 7.9 1026.5 0.0
17/12:30am NNW 3 4 - - - - 10 - - 8.3 1026.6 0.0
17/12:00am NNW 4 5 - - - - 10 - - 8.9 1026.7 0.0
 
Date/Time
EST
Wind Sea
Height
m
Swell Vis
km
Cloud Weather Temp
°C
Press
MSL
hPa
Rain since
9am
mm
Dir  Spd
kts
Gust
kts
Height
m
Period
s
Dir
16/11:30pm NNW 4 5 - - - - 10 - - 8.6 1026.7 0.0
16/11:00pm SW 4 5 - - - - 10 - - 8.1 1027.0 0.0
16/10:30pm SW 4 4 - - - - 10 - - 8.8 1027.3 0.0
16/10:00pm SW 3 4 - - - - 10 - - 9.1 1027.3 0.0
16/09:30pm SW 6 6 - - - - 10 - - 9.2 1027.4 0.0
16/09:00pm SW 5 6 - - - - 10 - - 9.8 1027.6 0.0
16/08:30pm SW 5 6 - - - - 10 - - 10.3 1027.5 0.0
16/08:00pm S 4 5 - - - - 10 - - 10.5 1027.5 0.0
16/07:30pm S 1 4 - - - - 10 - - 10.7 1027.6 0.0
16/07:00pm S 3 3 - - - - 10 - - 11.2 1027.7 0.0
16/06:30pm S 3 3 - - - - 10 - - 12.1 1027.6 0.0
16/06:00pm S 4 4 - - - - 10 - - 12.8 1027.6 0.0
16/05:30pm S 3 4 - - - - 10 - - 13.4 1027.4 0.0
16/05:00pm S 4 5 - - - - 10 - - 15.0 1027.2 0.0
16/04:30pm S 4 5 - - - - 10 - - 15.8 1027.2 0.0
16/04:00pm E 4 6 - - - - 10 - - 16.2 1027.3 0.0
16/03:30pm SE 6 8 - - - - 10 - - 16.4 1027.4 0.0
16/03:00pm SE 6 8 - - - - 10 - - 16.8 1027.3 0.0
16/02:30pm SE 6 8 - - - - 10 - - 16.8 1027.4 0.0
16/02:00pm SE 5 7 - - - - 10 - - 16.8 1027.5 0.0
16/01:30pm SE 6 9 - - - - 10 - - 16.6 1027.6 0.0
16/01:00pm ESE 5 9 - - - - 10 - - 17.1 1027.8 0.0
16/12:30pm S 4 7 - - - - 10 - - 16.7 1028.2 0.0
16/12:00pm SW 1 4 - - - - 10 - - 16.3 1028.7 0.0
16/11:30am W 3 4 - - - - 10 - - 16.1 1029.2 0.0
16/11:00am NNW 4 6 - - - - 10 - - 15.8 1029.6 0.0
16/10:30am NNE 3 5 - - - - 10 - - 15.0 1029.7 0.0
16/10:00am NE 3 5 - - - - 10 - - 13.3 1029.8 0.0
16/09:30am NE 3 4 - - - - 10 - - 11.6 1029.9 0.0

Other formats

Comma delimited format used in spreadsheet applications
http://www.bom.gov.au/fwo/IDV60701/IDV60701.94865.axf

JavaScript Object Notation format (JSON) in row-major order
http://www.bom.gov.au/fwo/IDV60701/IDV60701.94865.json

Data quality

Most of these data are generated automatically and are frequently updated. Quality checks on data are not normally performed. It is possible for incorrect values to appear. Refer to information at About Latest Weather Observations and please check the disclaimer before using these data.